Time;durP1;ratioP1;P1;durP2;ratioP2;P2;SDS_P1;SDS_P2;PMS_P1;PMS_P2;Temp;Humidity;BMP_temperature;BMP_pressure;BME280_temperature;BME280_humidity;BME280_pressure;Samples;Min_cycle;Max_cycle;Signal;HPM_P1;HPM_P2
2022/07/19 00:02:14;;;;;;;9.40;5.00;;;17.10;49.70;;;;;;5000317;28;20436;-50
2022/07/19 00:04:41;;;;;;;6.07;5.00;;;17.00;47.40;;;;;;4991811;28;20543;-49
2022/07/19 00:07:08;;;;;;;7.90;5.40;;;17.00;36.60;;;;;;4993016;28;20472;-50
2022/07/19 00:09:34;;;;;;;4.73;4.17;;;16.90;45.10;;;;;;4988038;28;20461;-49
2022/07/19 00:12:02;;;;;;;6.83;4.40;;;16.90;40.60;;;;;;4998026;28;20494;-50
2022/07/19 00:14:29;;;;;;;6.67;5.47;;;16.90;33.00;;;;;;5002114;28;20516;-49
2022/07/19 00:16:55;;;;;;;8.97;4.87;;;16.80;40.70;;;;;;4990275;28;20515;-50
2022/07/19 00:19:22;;;;;;;7.33;4.40;;;16.80;40.70;;;;;;4996663;28;20459;-50
2022/07/19 00:21:49;;;;;;;16.33;5.57;;;16.70;33.80;;;;;;5000897;28;20518;-50
2022/07/19 00:24:15;;;;;;;16.60;5.23;;;16.70;38.00;;;;;;4990718;28;20480;-50
2022/07/19 00:26:42;;;;;;;11.13;5.47;;;16.70;32.10;;;;;;4988175;28;20511;-50
2022/07/19 00:29:10;;;;;;;6.93;5.27;;;16.60;37.80;;;;;;4988430;28;20464;-49
2022/07/19 00:31:36;;;;;;;5.63;5.07;;;16.60;29.40;;;;;;4993041;28;20449;-49
2022/07/19 00:34:03;;;;;;;10.67;5.63;;;16.60;32.00;;;;;;4995122;28;20534;-50
2022/07/19 00:36:30;;;;;;;7.93;5.60;;;16.60;20.50;;;;;;4996815;28;20526;-50
2022/07/19 00:38:56;;;;;;;12.30;6.27;;;16.60;30.00;;;;;;5001209;28;21025;-50
2022/07/19 00:41:23;;;;;;;9.90;4.77;;;16.50;33.90;;;;;;4995538;28;20527;-50
2022/07/19 00:43:51;;;;;;;6.43;4.23;;;16.50;31.90;;;;;;4991992;28;20480;-50
2022/07/19 00:46:20;;;;;;;8.83;4.30;;;16.40;31.70;;;;;;4986885;28;20934;-49
2022/07/19 00:48:47;;;;;;;9.83;5.50;;;16.40;24.70;;;;;;4992451;28;20452;-49
2022/07/19 00:51:16;;;;;;;8.37;4.90;;;16.30;23.60;;;;;;4991522;28;20950;-49
2022/07/19 00:53:44;;;;;;;10.03;5.40;;;16.30;30.20;;;;;;4991030;28;20562;-50
2022/07/19 00:56:12;;;;;;;8.57;5.60;;;16.20;29.00;;;;;;4989948;28;20601;-50
2022/07/19 00:58:40;;;;;;;11.33;5.60;;;16.20;25.70;;;;;;4992039;28;20863;-49
2022/07/19 01:01:08;;;;;;;7.00;4.90;;;16.20;24.30;;;;;;4991587;28;20464;-49
2022/07/19 01:03:38;;;;;;;19.30;5.70;;;16.20;20.70;;;;;;4992254;28;20484;-49
2022/07/19 01:06:05;;;;;;;5.50;4.87;;;16.20;26.40;;;;;;4989587;28;20938;-50
2022/07/19 01:08:32;;;;;;;20.60;5.03;;;16.10;23.00;;;;;;4993857;28;20465;-49
2022/07/19 01:10:59;;;;;;;7.00;5.90;;;16.10;99.90;;;;;;5002015;28;20510;-50
2022/07/19 01:13:26;;;;;;;7.20;5.53;;;16.10;90.80;;;;;;4987738;28;20513;-50
2022/07/19 01:15:52;;;;;;;6.10;5.10;;;16.00;93.10;;;;;;4996364;28;20476;-49
2022/07/19 01:18:20;;;;;;;13.83;5.73;;;15.90;98.70;;;;;;4995801;28;20464;-50
2022/07/19 01:20:48;;;;;;;7.93;5.57;;;15.90;99.90;;;;;;4993247;28;20460;-50
2022/07/19 01:23:16;;;;;;;9.33;5.80;;;15.90;99.20;;;;;;4998336;28;20551;-50
2022/07/19 01:25:43;;;;;;;11.53;5.30;;;15.80;99.90;;;;;;4990638;28;20460;-50
2022/07/19 01:28:10;;;;;;;6.80;5.27;;;15.80;99.90;;;;;;4987807;28;20510;-50
2022/07/19 01:30:37;;;;;;;13.13;5.50;;;15.70;99.90;;;;;;4992746;28;20437;-50
2022/07/19 01:33:04;;;;;;;7.73;5.07;;;15.70;99.90;;;;;;4993616;28;22556;-50
2022/07/19 01:35:31;;;;;;;10.10;5.73;;;15.70;99.90;;;;;;4989418;28;21021;-50
2022/07/19 01:37:57;;;;;;;10.97;5.47;;;15.70;99.90;;;;;;4989144;28;20469;-49
2022/07/19 01:40:26;;;;;;;10.67;5.43;;;15.70;99.90;;;;;;5000271;28;20518;-50
2022/07/19 01:42:53;;;;;;;12.03;5.17;;;15.70;99.90;;;;;;4985473;28;20535;-51
2022/07/19 01:45:20;;;;;;;7.70;5.80;;;15.70;99.90;;;;;;4990822;28;20488;-50
2022/07/19 01:47:48;;;;;;;11.90;5.37;;;15.60;99.90;;;;;;4992447;28;20511;-49
2022/07/19 01:50:17;;;;;;;13.10;6.20;;;15.60;99.90;;;;;;5003496;28;20495;-50
2022/07/19 01:52:43;;;;;;;7.77;6.00;;;15.60;99.90;;;;;;4993698;28;20471;-49
2022/07/19 01:55:10;;;;;;;6.53;5.53;;;15.60;99.90;;;;;;4994104;28;20558;-49
2022/07/19 01:57:38;;;;;;;9.60;5.93;;;15.50;99.90;;;;;;4988503;28;20520;-49
2022/07/19 02:00:06;;;;;;;12.50;5.40;;;15.50;99.90;;;;;;4989273;28;20546;-49
2022/07/19 02:02:33;;;;;;;10.53;5.57;;;15.60;99.90;;;;;;4998295;28;20456;-49
2022/07/19 02:04:59;;;;;;;9.83;5.57;;;15.50;99.90;;;;;;5001072;28;21058;-49
2022/07/19 02:07:26;;;;;;;7.50;5.03;;;15.40;99.90;;;;;;5001436;28;20461;-50
2022/07/19 02:09:52;;;;;;;14.47;5.63;;;15.50;99.90;;;;;;4984092;28;21204;-50
2022/07/19 02:12:19;;;;;;;7.60;5.63;;;15.40;99.90;;;;;;4992993;28;21390;-50
2022/07/19 02:14:47;;;;;;;9.60;5.20;;;15.40;99.90;;;;;;4991618;28;20933;-49
2022/07/19 02:17:14;;;;;;;6.33;5.43;;;15.40;99.90;;;;;;4993901;28;20545;-51
2022/07/19 02:19:40;;;;;;;18.50;5.67;;;15.40;99.90;;;;;;5000344;28;20471;-50
2022/07/19 02:22:07;;;;;;;6.93;5.13;;;15.30;99.90;;;;;;4989740;28;20492;-49
2022/07/19 02:24:33;;;;;;;9.33;5.83;;;15.30;99.90;;;;;;4992434;28;20484;-49
2022/07/19 02:27:00;;;;;;;7.27;5.50;;;15.30;99.90;;;;;;4995375;28;20523;-50
2022/07/19 02:29:26;;;;;;;8.70;5.50;;;15.20;99.90;;;;;;4990713;28;20487;-50
2022/07/19 02:31:54;;;;;;;7.73;5.00;;;15.30;99.90;;;;;;4993394;28;20488;-50
2022/07/19 02:34:21;;;;;;;9.97;6.33;;;15.20;99.90;;;;;;5001309;28;20520;-49
2022/07/19 02:36:47;;;;;;;9.20;5.80;;;15.20;99.90;;;;;;4986605;28;20496;-49
2022/07/19 02:39:14;;;;;;;8.23;5.50;;;15.20;99.90;;;;;;4985008;28;20460;-49
2022/07/19 02:41:41;;;;;;;11.87;5.53;;;15.10;99.90;;;;;;4991211;28;21017;-49
2022/07/19 02:44:07;;;;;;;10.70;5.80;;;15.10;99.90;;;;;;4988744;28;21060;-49
2022/07/19 02:46:34;;;;;;;8.20;6.40;;;15.10;99.90;;;;;;4994144;28;20471;-48
2022/07/19 02:49:02;;;;;;;9.40;6.13;;;15.10;99.90;;;;;;4992478;28;20471;-50
2022/07/19 02:51:29;;;;;;;10.00;5.87;;;15.10;99.90;;;;;;4989593;28;20496;-50
2022/07/19 02:53:55;;;;;;;13.80;6.87;;;15.10;99.90;;;;;;4988698;28;20512;-49
2022/07/19 02:56:22;;;;;;;16.60;5.60;;;15.10;99.90;;;;;;5000151;28;20490;-50
2022/07/19 02:58:48;;;;;;;10.93;5.23;;;15.10;99.90;;;;;;4990484;28;20558;-50
2022/07/19 03:01:15;;;;;;;7.93;5.40;;;15.10;99.90;;;;;;4991974;28;20541;-50
2022/07/19 03:03:46;;;;;;;7.67;5.60;;;15.00;99.90;;;;;;4992723;28;20543;-49
2022/07/19 03:06:17;;;;;;;12.73;5.53;;;15.00;99.90;;;;;;4990491;28;20460;-50
2022/07/19 03:08:44;;;;;;;5.83;5.23;;;15.00;99.90;;;;;;4988251;28;20488;-49
2022/07/19 03:11:10;;;;;;;7.67;5.60;;;15.00;99.90;;;;;;5000798;28;20530;-49
2022/07/19 03:13:37;;;;;;;9.30;5.97;;;15.00;99.90;;;;;;4987811;28;20567;-50
2022/07/19 03:16:04;;;;;;;6.97;5.00;;;15.00;99.90;;;;;;4984939;28;21017;-50
2022/07/19 03:18:30;;;;;;;8.43;7.03;;;15.00;99.90;;;;;;4992389;28;20500;-50
2022/07/19 03:20:58;;;;;;;8.67;6.00;;;15.00;99.90;;;;;;4999943;28;20484;-50
2022/07/19 03:23:27;;;;;;;9.47;6.50;;;14.90;99.90;;;;;;4996529;28;20492;-52
2022/07/19 03:25:53;;;;;;;8.13;5.50;;;14.90;99.90;;;;;;4994829;28;20475;-52
2022/07/19 03:28:20;;;;;;;11.53;5.90;;;14.90;99.90;;;;;;4990183;28;20468;-54
2022/07/19 03:30:47;;;;;;;6.90;5.33;;;14.90;99.90;;;;;;4998973;28;20474;-53
2022/07/19 03:33:15;;;;;;;9.93;5.83;;;15.00;99.90;;;;;;4991341;28;20589;-53
2022/07/19 03:35:42;;;;;;;11.00;6.20;;;15.00;99.90;;;;;;4995960;28;20879;-53
2022/07/19 03:38:09;;;;;;;12.43;6.50;;;15.00;99.90;;;;;;4989431;28;20542;-54
2022/07/19 03:40:37;;;;;;;11.10;6.00;;;15.00;99.90;;;;;;4993308;28;20488;-53
2022/07/19 03:43:03;;;;;;;14.70;5.93;;;15.00;99.90;;;;;;4998816;28;20516;-52
2022/07/19 03:45:30;;;;;;;15.80;5.90;;;14.90;99.90;;;;;;5002539;28;20479;-54
2022/07/19 03:47:56;;;;;;;9.87;5.60;;;14.90;99.90;;;;;;4992586;28;20488;-53
2022/07/19 03:50:23;;;;;;;18.27;6.90;;;14.90;99.90;;;;;;4995004;28;20489;-54
2022/07/19 03:52:49;;;;;;;15.70;6.10;;;15.00;99.90;;;;;;4989930;28;20546;-54
2022/07/19 03:55:16;;;;;;;22.07;7.37;;;15.00;99.90;;;;;;4992907;28;20524;-54
2022/07/19 03:57:44;;;;;;;14.90;6.73;;;15.00;99.90;;;;;;4992618;28;20551;-54
2022/07/19 04:00:11;;;;;;;13.03;5.97;;;15.00;99.90;;;;;;4992944;28;20491;-54
2022/07/19 04:02:38;;;;;;;18.77;6.53;;;15.00;99.90;;;;;;4991031;28;20469;-54
2022/07/19 04:05:05;;;;;;;19.70;6.90;;;15.10;99.90;;;;;;4998293;28;20484;-54
2022/07/19 04:07:31;;;;;;;13.93;6.97;;;15.10;99.90;;;;;;4998742;28;20496;-54
2022/07/19 04:09:58;;;;;;;31.23;7.80;;;15.10;99.90;;;;;;4990951;28;20474;-54
2022/07/19 04:12:24;;;;;;;21.13;6.23;;;15.20;99.90;;;;;;4991270;28;21157;-54
2022/07/19 04:14:52;;;;;;;18.03;6.50;;;15.20;99.90;;;;;;4995581;28;20974;-54
2022/07/19 04:17:20;;;;;;;23.93;6.30;;;15.30;99.90;;;;;;4989252;28;20500;-54
2022/07/19 04:19:46;;;;;;;26.00;7.30;;;15.30;99.90;;;;;;5000027;28;20467;-54
2022/07/19 04:22:13;;;;;;;19.33;7.43;;;15.30;99.90;;;;;;4987617;28;20567;-54
2022/07/19 04:24:39;;;;;;;23.53;6.87;;;15.30;99.90;;;;;;5001323;28;20489;-54
2022/07/19 04:27:06;;;;;;;13.03;6.43;;;15.30;99.90;;;;;;4988314;28;20546;-54
2022/07/19 04:29:33;;;;;;;31.23;8.30;;;15.40;99.90;;;;;;4994373;28;20464;-54
2022/07/19 04:32:00;;;;;;;17.83;6.43;;;15.40;99.90;;;;;;4992890;28;20496;-54
2022/07/19 04:34:27;;;;;;;23.13;6.30;;;15.50;99.90;;;;;;4995843;28;20512;-54
2022/07/19 04:36:54;;;;;;;29.20;6.87;;;15.50;99.90;;;;;;5002052;28;20483;-54
2022/07/19 04:39:20;;;;;;;28.40;7.27;;;15.60;99.90;;;;;;5000545;28;20464;-54
2022/07/19 04:41:47;;;;;;;38.53;7.23;;;15.70;99.90;;;;;;4992328;28;20542;-55
2022/07/19 04:44:13;;;;;;;27.67;7.27;;;15.70;99.90;;;;;;4996091;28;20507;-54
2022/07/19 04:46:40;;;;;;;34.53;8.30;;;15.80;99.90;;;;;;5006727;28;20460;-54
2022/07/19 04:49:08;;;;;;;31.23;7.33;;;15.80;99.90;;;;;;4989674;28;20487;-54
2022/07/19 04:51:34;;;;;;;20.53;7.13;;;15.90;99.90;;;;;;4996606;28;20480;-54
2022/07/19 04:54:01;;;;;;;18.17;7.70;;;16.00;99.90;;;;;;4991068;28;20523;-54
2022/07/19 04:56:27;;;;;;;16.30;6.87;;;16.10;99.90;;;;;;4997744;28;20522;-54
2022/07/19 04:58:54;;;;;;;21.27;6.63;;;16.20;99.90;;;;;;4991715;28;20489;-54
2022/07/19 05:01:20;;;;;;;35.40;6.50;;;16.30;99.90;;;;;;5003932;28;20444;-54
2022/07/19 05:03:47;;;;;;;20.43;6.57;;;16.40;99.90;;;;;;4997625;28;20575;-54
2022/07/19 05:06:15;;;;;;;20.93;6.30;;;16.40;99.90;;;;;;4998915;28;20534;-54
2022/07/19 05:08:41;;;;;;;17.07;6.57;;;16.50;99.90;;;;;;4991816;28;20958;-52
2022/07/19 05:11:08;;;;;;;17.33;6.20;;;16.60;99.90;;;;;;4989499;28;20599;-53
2022/07/19 05:13:34;;;;;;;22.23;7.00;;;16.70;99.90;;;;;;4991429;28;20516;-54
2022/07/19 05:16:01;;;;;;;16.13;6.60;;;16.80;99.90;;;;;;4992625;28;20599;-54
2022/07/19 05:18:28;;;;;;;25.27;6.10;;;16.90;99.90;;;;;;4996262;28;20500;-54
2022/07/19 05:20:54;;;;;;;27.33;6.57;;;17.10;99.90;;;;;;4989524;28;20493;-54
2022/07/19 05:23:22;;;;;;;21.93;6.60;;;17.20;99.90;;;;;;4996403;28;20468;-54
2022/07/19 05:25:49;;;;;;;19.20;7.00;;;17.40;99.90;;;;;;4991539;28;20931;-54
2022/07/19 05:28:15;;;;;;;14.63;5.77;;;17.50;99.90;;;;;;5000859;28;20947;-54
2022/07/19 05:30:43;;;;;;;15.33;5.50;;;17.70;99.90;;;;;;4991504;28;21044;-54
2022/07/19 05:33:09;;;;;;;20.80;6.63;;;17.80;99.90;;;;;;4984414;28;20468;-54
2022/07/19 05:35:36;;;;;;;15.93;6.60;;;18.00;99.90;;;;;;4989127;28;20527;-53
2022/07/19 05:38:03;;;;;;;11.33;5.97;;;18.10;31.20;;;;;;5008659;28;20811;-54
2022/07/19 05:40:31;;;;;;;10.80;5.60;;;18.20;40.70;;;;;;4986747;28;20471;-54
2022/07/19 05:42:57;;;;;;;13.57;5.00;;;18.40;48.70;;;;;;5002058;28;21068;-54
2022/07/19 05:45:24;;;;;;;6.97;5.40;;;18.50;54.20;;;;;;4999732;28;21036;-54
2022/07/19 05:47:51;;;;;;;11.53;5.10;;;18.70;60.60;;;;;;4995752;28;20496;-55
2022/07/19 05:50:17;;;;;;;9.43;4.77;;;18.80;68.70;;;;;;4993180;28;20854;-52
2022/07/19 05:52:44;;;;;;;10.43;4.50;;;19.00;78.50;;;;;;4990207;28;21002;-54
2022/07/19 05:55:11;;;;;;;5.20;4.70;;;19.20;84.50;;;;;;4996226;28;20881;-52
2022/07/19 05:57:38;;;;;;;4.60;4.20;;;19.40;99.90;;;;;;5008332;28;20491;-54
2022/07/19 06:00:06;;;;;;;5.40;4.70;;;19.50;99.90;;;;;;4997719;28;20503;-54
2022/07/19 06:02:33;;;;;;;5.80;4.43;;;19.70;99.90;;;;;;5000371;28;20499;-54
2022/07/19 06:04:59;;;;;;;6.37;3.80;;;19.80;99.90;;;;;;4994012;28;20475;-54
2022/07/19 06:07:26;;;;;;;5.50;4.43;;;19.90;99.90;;;;;;4991106;28;20802;-53
2022/07/19 06:09:52;;;;;;;10.30;4.50;;;20.10;99.90;;;;;;4983525;28;20519;-54
2022/07/19 06:12:19;;;;;;;11.50;4.27;;;20.10;99.90;;;;;;4991349;28;20487;-54
2022/07/19 06:14:47;;;;;;;13.80;4.40;;;20.20;99.90;;;;;;4992089;28;20512;-53
2022/07/19 06:17:13;;;;;;;6.70;4.80;;;20.30;99.90;;;;;;4989753;28;20484;-54
2022/07/19 06:19:40;;;;;;;7.80;4.90;;;20.40;99.90;;;;;;4987365;28;20496;-54
2022/07/19 06:22:06;;;;;;;8.47;4.63;;;20.50;99.90;;;;;;4987140;28;20504;-53
2022/07/19 06:24:33;;;;;;;11.70;4.33;;;20.60;99.90;;;;;;4988430;28;20555;-54
2022/07/19 06:26:59;;;;;;;4.37;3.90;;;20.70;99.90;;;;;;5004807;28;20464;-54
2022/07/19 06:29:26;;;;;;;7.83;3.93;;;20.90;99.90;;;;;;4998194;28;20909;-53
2022/07/19 06:31:54;;;;;;;10.00;5.00;;;21.00;99.90;;;;;;5000254;28;20946;-53
2022/07/19 06:34:21;;;;;;;9.90;3.43;;;21.10;99.90;;;;;;4992665;28;20535;-53
2022/07/19 06:36:47;;;;;;;11.43;4.30;;;21.20;99.90;;;;;;4992524;28;20513;-54
2022/07/19 06:39:14;;;;;;;3.83;3.27;;;21.30;99.90;;;;;;5004740;28;20459;-53
2022/07/19 06:41:41;;;;;;;8.50;4.07;;;21.40;99.90;;;;;;4989251;28;20504;-53
2022/07/19 06:44:08;;;;;;;4.00;3.47;;;21.50;99.90;;;;;;5003364;28;20466;-54
2022/07/19 06:46:34;;;;;;;5.33;3.57;;;21.60;99.90;;;;;;4999540;28;20490;-52
2022/07/19 06:49:02;;;;;;;9.07;4.50;;;21.70;99.90;;;;;;4991733;28;20453;-54
2022/07/19 06:51:29;;;;;;;4.27;3.10;;;21.80;99.90;;;;;;4991953;28;20496;-53
2022/07/19 06:53:55;;;;;;;5.50;3.27;;;21.90;99.90;;;;;;4990997;28;20515;-53
2022/07/19 06:56:22;;;;;;;3.50;3.30;;;22.00;99.90;;;;;;4997974;28;20569;-53
2022/07/19 06:58:48;;;;;;;6.00;3.90;;;22.10;99.90;;;;;;4996839;28;20500;-53
2022/07/19 07:01:17;;;;;;;3.50;3.20;;;22.20;99.90;;;;;;4994595;28;20475;-53
2022/07/19 07:03:44;;;;;;;4.90;3.17;;;22.30;99.90;;;;;;4993491;28;20488;-52
2022/07/19 07:06:12;;;;;;;3.57;3.20;;;22.40;99.90;;;;;;4995226;28;20491;-54
2022/07/19 07:08:38;;;;;;;9.50;3.70;;;22.50;99.90;;;;;;5000525;28;20522;-52
2022/07/19 07:11:05;;;;;;;5.23;3.00;;;22.60;99.90;;;;;;4995360;28;20503;-54
2022/07/19 07:13:32;;;;;;;12.93;3.10;;;22.60;99.90;;;;;;4993363;28;20505;-52
2022/07/19 07:15:58;;;;;;;5.13;2.57;;;22.70;1.40;;;;;;5004034;28;20479;-52
2022/07/19 07:18:25;;;;;;;7.00;3.27;;;23.00;99.90;;;;;;4993090;28;20444;-54
2022/07/19 07:20:51;;;;;;;6.83;3.30;;;23.10;99.90;;;;;;4991818;28;20542;-55
2022/07/19 07:23:20;;;;;;;8.60;3.83;;;23.20;99.90;;;;;;4993831;28;21128;-54
2022/07/19 07:25:47;;;;;;;8.23;3.17;;;23.20;99.90;;;;;;5004111;28;20471;-53
2022/07/19 07:28:13;;;;;;;15.57;3.47;;;23.30;99.90;;;;;;4999256;28;20491;-53
2022/07/19 07:30:40;;;;;;;8.90;4.00;;;23.50;99.90;;;;;;4991898;28;20523;-53
2022/07/19 07:33:06;;;;;;;15.50;3.13;;;23.50;99.90;;;;;;4994141;28;20491;-53
2022/07/19 07:35:33;;;;;;;10.73;3.80;;;23.60;99.90;;;;;;4992714;28;20923;-53
2022/07/19 07:37:59;;;;;;;9.13;3.33;;;23.70;99.90;;;;;;5000987;28;20464;-52
2022/07/19 07:40:27;;;;;;;6.10;3.47;;;23.80;99.90;;;;;;4993464;28;20495;-53
2022/07/19 07:42:54;;;;;;;16.57;3.87;;;23.80;99.90;;;;;;4992741;28;20489;-55
2022/07/19 07:45:20;;;;;;;9.47;3.50;;;23.90;99.90;;;;;;4994779;28;20453;-53
2022/07/19 07:47:47;;;;;;;3.73;2.90;;;24.10;99.90;;;;;;4992356;28;20496;-52
2022/07/19 07:50:14;;;;;;;3.57;3.27;;;24.10;99.90;;;;;;4993623;28;20492;-52
2022/07/19 07:52:40;;;;;;;9.97;3.40;;;24.30;99.90;;;;;;4999949;28;20465;-53
2022/07/19 07:55:07;;;;;;;9.13;3.47;;;24.50;99.90;;;;;;4992333;28;20469;-54
2022/07/19 07:57:35;;;;;;;7.63;3.93;;;24.60;99.90;;;;;;4992318;28;20492;-53
2022/07/19 08:00:02;;;;;;;5.40;3.73;;;24.70;99.90;;;;;;4994664;28;20444;-53
2022/07/19 08:02:29;;;;;;;5.20;2.93;;;24.90;99.90;;;;;;4986021;28;21006;-54
2022/07/19 08:04:55;;;;;;;7.60;3.70;;;25.00;99.90;;;;;;5001178;28;21275;-54
2022/07/19 08:07:22;;;;;;;7.10;3.47;;;25.20;99.90;;;;;;4993960;28;21003;-54
2022/07/19 08:09:49;;;;;;;10.23;3.17;;;25.40;99.90;;;;;;4994422;28;20492;-54
2022/07/19 08:12:15;;;;;;;3.20;2.90;;;25.60;99.90;;;;;;5005333;28;20435;-53
2022/07/19 08:14:43;;;;;;;4.00;2.97;;;25.80;99.90;;;;;;5008391;28;20487;-53
2022/07/19 08:17:10;;;;;;;4.53;2.90;;;25.90;99.90;;;;;;4991507;28;20578;-53
2022/07/19 08:19:36;;;;;;;6.47;2.93;;;26.00;99.90;;;;;;4987847;28;21224;-53
2022/07/19 08:22:03;;;;;;;4.33;3.13;;;26.20;99.90;;;;;;5003589;28;20468;-53
2022/07/19 08:24:30;;;;;;;5.97;3.10;;;26.20;99.90;;;;;;4996267;28;20922;-53
2022/07/19 08:26:56;;;;;;;4.83;3.30;;;26.30;99.90;;;;;;4992778;28;21068;-53
2022/07/19 08:29:23;;;;;;;8.33;3.40;;;26.50;99.90;;;;;;4993659;28;20464;-53
2022/07/19 08:31:51;;;;;;;6.80;3.60;;;26.60;99.90;;;;;;5001710;28;20488;-53
2022/07/19 08:34:17;;;;;;;3.20;2.90;;;26.70;99.90;;;;;;4999147;28;20562;-53
2022/07/19 08:36:44;;;;;;;4.10;3.00;;;26.80;99.90;;;;;;4999556;28;20959;-52
2022/07/19 08:39:10;;;;;;;6.53;2.90;;;26.90;99.90;;;;;;4999986;28;21112;-53
2022/07/19 08:41:37;;;;;;;11.10;4.00;;;27.00;99.90;;;;;;4982890;28;20868;-54
2022/07/19 08:44:05;;;;;;;4.93;2.97;;;27.10;99.90;;;;;;4993076;28;20898;-53
2022/07/19 08:46:31;;;;;;;6.63;2.77;;;27.30;99.90;;;;;;4993320;28;20461;-53
2022/07/19 08:49:00;;;;;;;6.60;2.93;;;27.30;99.90;;;;;;5000295;28;20469;-54
2022/07/19 08:51:27;;;;;;;6.37;2.70;;;27.50;99.90;;;;;;4989277;28;20461;-53
2022/07/19 08:53:53;;;;;;;5.20;2.60;;;27.60;99.90;;;;;;4990909;28;21239;-52
2022/07/19 08:59:05;;;;;;;5.00;3.00;;;27.80;99.90;;;;;;4992291;28;20475;-53
2022/07/19 09:01:32;;;;;;;4.30;2.60;;;27.90;99.90;;;;;;5000208;28;20479;-54
2022/07/19 09:04:15;;;;;;;7.03;2.93;;;28.00;99.90;;;;;;4993077;28;21032;-52
2022/07/19 09:06:45;;;;;;;5.07;2.67;;;28.20;99.90;;;;;;4997134;28;21041;-52
2022/07/19 09:09:14;;;;;;;4.00;2.87;;;28.30;99.90;;;;;;4995202;28;20521;-53
2022/07/19 09:11:48;;;;;;;8.30;2.77;;;28.90;99.90;;;;;;4984671;28;20517;-53
2022/07/19 09:14:16;;;;;;;2.63;2.43;;;29.50;99.90;;;;;;4995646;28;20460;-53
2022/07/19 09:16:50;;;;;;;2.80;2.60;;;29.80;99.90;;;;;;5007118;28;20480;-53
2022/07/19 09:19:19;;;;;;;10.73;3.07;;;29.70;99.90;;;;;;4994296;28;20491;-54
2022/07/19 09:21:54;;;;;;;4.47;3.03;;;29.50;99.90;;;;;;4997204;28;20468;-53
2022/07/19 09:24:22;;;;;;;2.70;2.50;;;29.50;99.90;;;;;;5007551;23;21066;-54
2022/07/19 09:26:59;;;;;;;8.57;2.80;;;29.40;99.90;;;;;;5008462;28;20829;-54
2022/07/19 09:29:27;;;;;;;4.70;3.43;;;29.40;99.90;;;;;;5010486;28;20439;-55
2022/07/19 09:32:06;;;;;;;6.60;3.43;;;29.40;99.90;;;;;;5010576;28;20460;-53
2022/07/19 09:34:36;;;;;;;5.27;2.83;;;29.40;99.90;;;;;;5003736;28;20495;-54
2022/07/19 09:37:17;;;;;;;3.43;2.93;;;29.50;99.90;;;;;;5011131;28;20515;-55
2022/07/19 09:39:47;;;;;;;5.17;3.20;;;29.60;99.90;;;;;;5011363;28;20527;-54
2022/07/19 09:42:15;;;;;;;4.40;3.07;;;29.70;99.90;;;;;;5009848;28;20459;-55
2022/07/19 09:44:42;;;;;;;7.03;4.03;;;29.80;99.90;;;;;;5011946;28;20507;-53
2022/07/19 09:47:09;;;;;;;3.97;2.90;;;29.80;99.90;;;;;;5004319;28;20479;-53
2022/07/19 09:49:37;;;;;;;3.40;2.67;;;29.80;99.90;;;;;;5012156;28;20450;-53
2022/07/19 09:52:04;;;;;;;6.70;3.57;;;29.90;99.90;;;;;;5009450;28;20487;-54
2022/07/19 09:54:32;;;;;;;4.60;2.53;;;29.90;99.90;;;;;;5008832;28;20537;-54
2022/07/19 09:56:59;;;;;;;3.80;2.63;;;30.00;99.90;;;;;;5009892;28;20578;-54
2022/07/19 09:59:27;;;;;;;2.70;2.50;;;30.00;99.90;;;;;;5009799;28;20487;-54
2022/07/19 10:01:56;;;;;;;2.80;2.50;;;30.10;99.90;;;;;;5010049;28;20458;-54
2022/07/19 10:04:25;;;;;;;4.70;2.30;;;30.30;99.90;;;;;;5009173;28;20519;-53
2022/07/19 10:06:54;;;;;;;9.33;2.70;;;30.40;99.90;;;;;;5008636;28;20495;-55
2022/07/19 10:09:24;;;;;;;2.83;2.63;;;30.50;99.90;;;;;;5010950;28;20467;-53
2022/07/19 10:11:53;;;;;;;7.10;3.30;;;30.60;99.90;;;;;;5010138;28;20527;-56
2022/07/19 10:14:20;;;;;;;4.80;2.57;;;30.60;99.90;;;;;;5010244;28;20992;-54
2022/07/19 10:17:09;;;;;;;8.23;2.30;;;30.70;99.90;;;;;;5009464;28;21046;-54
2022/07/19 10:19:39;;;;;;;2.37;2.20;;;30.80;99.90;;;;;;5005102;28;20459;-55
2022/07/19 10:22:09;;;;;;;2.80;2.30;;;31.00;99.90;;;;;;5010949;28;20792;-54
2022/07/19 10:24:49;;;;;;;2.63;2.27;;;31.00;99.90;;;;;;5006623;28;20522;-54
2022/07/19 10:27:17;;;;;;;2.13;2.00;;;30.90;99.90;;;;;;5015599;28;20459;-55
2022/07/19 10:29:45;;;;;;;2.73;2.53;;;30.90;99.90;;;;;;5008614;28;21180;-54
2022/07/19 10:32:13;;;;;;;6.63;2.70;;;30.90;99.90;;;;;;5011148;28;20495;-54
2022/07/19 10:34:40;;;;;;;3.03;2.83;;;30.90;99.90;;;;;;5012865;28;20589;-54
2022/07/19 10:37:08;;;;;;;2.70;2.10;;;31.00;99.90;;;;;;5014444;28;20488;-55
2022/07/19 10:39:37;;;;;;;3.13;2.83;;;31.00;99.90;;;;;;5013560;28;20502;-54
2022/07/19 10:42:16;;;;;;;6.23;2.20;;;31.20;99.90;;;;;;5013495;28;20463;-55
2022/07/19 10:45:16;;;;;;;2.37;2.17;;;31.30;99.90;;;;;;5011312;28;20486;-54
2022/07/19 10:48:10;;;;;;;3.13;2.30;;;31.40;99.90;;;;;;4965662;28;20466;-55
2022/07/19 10:50:52;;;;;;;12.33;2.00;;;31.30;99.90;;;;;;4961169;28;20489;-55
2022/07/19 10:53:59;;;;;;;2.83;2.03;;;31.30;99.90;;;;;;5003118;28;20491;-53
2022/07/19 10:56:34;;;;;;;4.10;2.50;;;31.30;99.90;;;;;;4995605;28;20876;-54
2022/07/19 10:59:02;;;;;;;3.17;1.97;;;31.30;99.90;;;;;;5012791;28;21185;-53
2022/07/19 11:01:32;;;;;;;2.70;1.97;;;31.40;99.90;;;;;;5011275;28;20570;-53
2022/07/19 11:04:28;;;;;;;2.90;2.30;;;31.50;99.90;;;;;;5012942;28;20479;-54
2022/07/19 11:07:12;;;;;;;2.23;2.03;;;31.70;99.90;;;;;;5012003;28;20456;-55
2022/07/19 11:09:44;;;;;;;2.10;2.00;;;31.80;99.90;;;;;;5013709;28;20470;-54
2022/07/19 11:12:24;;;;;;;3.17;2.17;;;31.90;99.90;;;;;;5013182;28;20542;-54
2022/07/19 11:14:50;;;;;;;2.17;2.07;;;32.00;99.90;;;;;;5012438;28;20486;-54
2022/07/19 11:17:17;;;;;;;2.30;2.20;;;32.00;99.90;;;;;;5010440;28;20523;-54
2022/07/19 11:19:57;;;;;;;2.40;2.20;;;32.00;99.90;;;;;;5013571;28;20873;-54
2022/07/19 11:22:24;;;;;;;2.30;2.10;;;32.10;99.90;;;;;;5011183;28;20545;-53
2022/07/19 11:24:51;;;;;;;1.97;1.77;;;32.10;99.90;;;;;;5014636;28;20503;-53
2022/07/19 11:27:17;;;;;;;2.17;1.90;;;32.10;99.90;;;;;;5012617;28;20483;-55
2022/07/19 11:29:56;;;;;;;1.80;1.70;;;32.10;99.90;;;;;;5014664;28;20476;-54
2022/07/19 11:32:22;;;;;;;2.70;1.80;;;32.10;99.90;;;;;;5011856;28;20491;-54
2022/07/19 11:34:57;;;;;;;3.10;1.43;;;32.20;99.90;;;;;;5013551;28;20514;-54
2022/07/19 11:37:28;;;;;;;1.97;1.77;;;32.20;99.90;;;;;;5010375;28;20560;-53
2022/07/19 11:39:57;;;;;;;2.10;2.00;;;32.20;99.90;;;;;;5014202;28;20852;-53
2022/07/19 11:42:36;;;;;;;5.27;2.67;;;32.20;99.90;;;;;;5011706;28;20490;-55
2022/07/19 11:45:11;;;;;;;7.30;2.73;;;32.30;99.90;;;;;;5014370;28;20897;-54
2022/07/19 11:47:41;;;;;;;4.50;2.30;;;32.30;99.90;;;;;;5010972;28;20459;-54
2022/07/19 11:50:09;;;;;;;2.33;1.90;;;32.30;99.90;;;;;;5006396;28;20483;-55
2022/07/19 11:52:44;;;;;;;6.47;2.30;;;32.30;99.90;;;;;;5010210;28;20464;-54
2022/07/19 11:55:11;;;;;;;6.30;2.10;;;32.30;99.90;;;;;;5012106;28;20517;-55
2022/07/19 11:57:38;;;;;;;5.63;2.30;;;32.40;99.90;;;;;;5014045;28;20510;-53
2022/07/19 12:00:06;;;;;;;2.77;2.57;;;32.40;99.90;;;;;;5010531;28;20471;-53
2022/07/19 12:02:52;;;;;;;3.73;2.97;;;32.40;99.90;;;;;;5008364;28;20487;-54
2022/07/19 12:05:19;;;;;;;7.63;2.27;;;32.50;99.90;;;;;;5009298;28;20507;-54
2022/07/19 12:07:47;;;;;;;2.80;2.60;;;32.60;99.90;;;;;;5013960;28;20443;-54
2022/07/19 12:10:35;;;;;;;4.50;2.70;;;32.60;99.90;;;;;;5011089;28;20467;-54
2022/07/19 12:13:03;;;;;;;6.20;2.23;;;32.70;99.90;;;;;;5013307;28;20937;-55
2022/07/19 12:15:47;;;;;;;5.67;2.03;;;32.70;99.90;;;;;;5011404;28;20507;-53
2022/07/19 12:18:17;;;;;;;2.50;2.20;;;32.80;99.90;;;;;;5008304;28;20481;-54
2022/07/19 12:20:45;;;;;;;4.53;1.97;;;32.80;99.90;;;;;;5012886;28;20467;-54
2022/07/19 12:23:13;;;;;;;4.13;2.70;;;32.80;99.90;;;;;;5009833;28;20468;-54
2022/07/19 12:25:40;;;;;;;2.47;2.27;;;32.80;99.90;;;;;;5010038;28;20495;-55
2022/07/19 12:28:08;;;;;;;5.40;2.47;;;32.80;99.90;;;;;;5012540;28;20510;-54
2022/07/19 12:30:35;;;;;;;19.63;2.60;;;32.90;99.90;;;;;;5012483;28;20984;-53
2022/07/19 12:33:10;;;;;;;12.47;2.70;;;33.00;99.90;;;;;;5004208;28;20494;-54
2022/07/19 12:35:46;;;;;;;3.20;2.23;;;33.10;99.90;;;;;;5010855;28;20483;-54
2022/07/19 12:38:13;;;;;;;12.10;2.43;;;33.30;99.90;;;;;;5012472;28;20515;-54
2022/07/19 12:40:42;;;;;;;6.57;2.73;;;33.30;99.90;;;;;;5011966;28;20842;-54
2022/07/19 12:43:12;;;;;;;7.23;2.40;;;33.30;99.90;;;;;;5009210;28;20495;-54
2022/07/19 12:45:42;;;;;;;6.00;3.23;;;33.40;99.90;;;;;;5010344;28;20464;-53
2022/07/19 12:48:10;;;;;;;3.63;2.37;;;33.40;99.90;;;;;;5004136;28;20941;-54
2022/07/19 12:50:39;;;;;;;4.83;2.67;;;33.40;99.90;;;;;;5012082;28;20451;-54
2022/07/19 12:53:08;;;;;;;3.73;1.80;;;33.50;99.90;;;;;;5011404;28;20484;-55